Meath Environmental Platform

Observations for Trim Patrick St

Time AQI Temp °C Hum % Pres Pa CO μg/m³ H₂S μg/m³ NO μg/m³ NO₂ μg/m³ O₃ μg/m³ SO₂ μg/m³ PM1 μg/m³ PM2.5 μg/m³ PM10 μg/m³
Friday 31 July 2026
17:33 3 27.6 36 68,997 0.09 0 1.43 19.76 63.92 8.98 2 7.3 8.03
17:32 3 27.5 36 68,993 0.09 0 1.5 20.87 57.43 8.68 2.86 8.88 9.77
17:31 3 27.3 35 68,987 0.06 0 1.36 17.51 49.74 8.32 2 8.13 8.94
17:30 3 27.1 38 68,985 0.06 0 1.15 14.59 52.82 8.09 2.86 8.77 9.65
17:29 3 26.8 38 68,979 0 8.01 1.3 40.69 57.09 8.4 2.86 8.73 9.6
17:28 3 26.6 39 68,973 0 7.76 1.21 29.25 70.58 8.96 2 7.91 8.7
17:27 3 26.4 38 68,943 0 7.61 1.25 39.59 69.08 8.12 2 7.94 8.73
17:26 3 26.2 38 68,963 0 7.2 1.42 34.58 61.01 7.69 2 7.97 8.77
17:25 3 25.9 39 68,961 0 3.41 1.42 29.86 57.66 7.25 2.86 8.69 9.56
17:24 3 25.7 38 68,932 0 11.59 1.29 30.96 63.1 8.61 2.86 8.71 9.59
17:23 3 25.5 40 68,924 0 9.58 1.25 38.09 60.47 7.67 2.86 9.4 10.34
17:22 3 25.2 40 68,910 0 10.29 1.24 29.53 59.06 7.08 2 7.84 8.63
17:21 3 25 41 68,894 0 17.76 1.13 48.92 60.97 8.04 3.71 9.32 10.25
17:20 3 24.8 41 68,873 0 16.02 1.14 44.41 67.21 8.28 3.71 9.31 10.25
17:19 3 24.5 42 68,843 0 15.36 1.18 36.1 68.83 7.57 2.86 8.51 9.36
17:18 3 24.3 42 68,841 0 22.75 1.19 35.83 76.43 9.01 2 7.67 8.43
17:17 3 24.1 43 68,835 0 23.63 1.22 47.77 71.06 8.37 2.86 8.42 9.26
17:16 3 23.9 42 68,833 0 24.8 1.28 36.72 78.73 8.76 2 7.67 8.43
17:15 3 23.7 43 68,833 0 22.7 1.3 39.48 73.32 7.96 2.86 9.2 10.12
17:14 3 23.6 43 68,833 0 22.57 1.33 32.96 77.42 8.71 2 7.66 8.42